createdAt,value
2023-04-26T00:02:21.634Z,62.94
2023-04-26T00:04:52.124Z,63.58
2023-04-26T00:07:20.431Z,65.07
2023-04-26T00:09:48.202Z,64.72
2023-04-26T00:12:15.513Z,63.20
2023-04-26T00:14:43.697Z,62.36
2023-04-26T00:17:12.588Z,62.22
2023-04-26T00:19:43.166Z,62.49
2023-04-26T00:22:14.058Z,63.59
2023-04-26T00:24:42.096Z,62.96
2023-04-26T00:27:10.624Z,62.16
2023-04-26T00:29:37.709Z,61.72
2023-04-26T00:32:05.765Z,62.30
2023-04-26T00:34:37.370Z,61.52
2023-04-26T00:37:08.257Z,61.93
2023-04-26T00:39:35.699Z,63.44
2023-04-26T00:42:06.094Z,62.82
2023-04-26T00:44:40.038Z,62.65
2023-04-26T00:47:09.662Z,63.37
2023-04-26T00:49:41.713Z,63.10
2023-04-26T00:52:08.755Z,62.69
2023-04-26T00:54:36.559Z,62.77
2023-04-26T00:57:03.658Z,62.08
2023-04-26T00:59:30.860Z,62.05
2023-04-26T01:01:58.162Z,61.61
2023-04-26T01:04:28.031Z,61.12
2023-04-26T01:06:55.497Z,60.43
2023-04-26T01:09:23.014Z,60.64
2023-04-26T01:11:52.006Z,59.77
2023-04-26T01:14:19.429Z,59.59
2023-04-26T01:16:48.986Z,60.25
2023-04-26T01:19:16.731Z,59.45
2023-04-26T01:21:45.384Z,59.01
2023-04-26T01:24:13.181Z,58.99
2023-04-26T01:26:46.611Z,59.14
2023-04-26T01:29:14.856Z,60.79
2023-04-26T01:31:41.977Z,61.27
2023-04-26T01:34:09.187Z,61.46
2023-04-26T01:36:36.760Z,62.18
2023-04-26T01:39:04.520Z,61.72
2023-04-26T01:41:37.199Z,61.23
2023-04-26T01:44:04.208Z,60.67
2023-04-26T01:46:32.762Z,60.28
2023-04-26T01:49:00.324Z,60.85
2023-04-26T01:51:29.890Z,61.36
2023-04-26T01:53:56.752Z,62.12
2023-04-26T01:56:26.516Z,62.62
2023-04-26T01:58:55.523Z,61.79
2023-04-26T02:01:22.651Z,61.66
2023-04-26T02:03:51.698Z,61.86
2023-04-26T02:06:19.153Z,61.58
2023-04-26T02:08:49.055Z,63.22
2023-04-26T02:11:15.729Z,64.33
2023-04-26T02:13:44.179Z,64.84
2023-04-26T02:16:17.396Z,64.08
2023-04-26T02:18:45.555Z,64.27
2023-04-26T02:21:13.959Z,65.57
2023-04-26T02:23:41.471Z,63.85
2023-04-26T02:26:08.621Z,63.25
2023-04-26T02:28:38.420Z,64.46
2023-04-26T02:31:09.069Z,65.33
2023-04-26T02:33:41.168Z,64.59
2023-04-26T02:36:11.011Z,66.10
2023-04-26T02:38:38.001Z,66.50
2023-04-26T02:41:05.410Z,65.76
2023-04-26T02:43:32.534Z,65.25
2023-04-26T02:46:01.055Z,64.69
2023-04-26T02:48:31.797Z,64.31
2023-04-26T02:50:59.166Z,65.69
2023-04-26T02:53:31.123Z,64.45
2023-04-26T02:56:00.937Z,65.64
2023-04-26T02:58:27.617Z,66.73
2023-04-26T03:00:54.787Z,67.35
2023-04-26T03:03:22.989Z,67.39
2023-04-26T03:05:51.124Z,67.11
2023-04-26T03:08:18.177Z,67.23
2023-04-26T03:10:46.453Z,66.04
2023-04-26T03:13:13.747Z,65.39
2023-04-26T03:15:50.697Z,64.39
2023-04-26T03:18:23.611Z,63.51
2023-04-26T03:20:55.547Z,63.63
2023-04-26T03:23:30.537Z,63.58
2023-04-26T03:26:00.356Z,63.31
2023-04-26T03:28:31.813Z,64.17
2023-04-26T03:31:04.349Z,66.12
2023-04-26T03:33:40.409Z,66.49
2023-04-26T03:36:10.551Z,66.51
2023-04-26T03:38:40.846Z,65.90
2023-04-26T03:41:07.856Z,67.22
2023-04-26T03:43:35.141Z,68.19
2023-04-26T03:46:06.483Z,70.97
2023-04-26T03:48:38.959Z,73.75
2023-04-26T03:51:11.833Z,74.37
2023-04-26T03:53:39.713Z,72.89
2023-04-26T03:56:07.659Z,73.72
2023-04-26T03:58:39.646Z,70.55
2023-04-26T04:01:08.856Z,68.94
2023-04-26T04:03:39.218Z,69.66
2023-04-26T04:06:08.082Z,70.11
2023-04-26T04:08:35.072Z,69.78
2023-04-26T04:11:02.084Z,70.34
2023-04-26T04:13:28.659Z,70.43
2023-04-26T04:15:55.542Z,69.75
2023-04-26T04:18:22.205Z,71.35
2023-04-26T04:20:50.556Z,73.71
2023-04-26T04:23:18.893Z,76.26
2023-04-26T04:25:48.837Z,76.64
2023-04-26T04:28:15.875Z,74.16
2023-04-26T04:30:45.597Z,73.15
2023-04-26T04:33:17.215Z,73.33
2023-04-26T04:35:46.312Z,71.38
2023-04-26T04:38:17.124Z,72.52
2023-04-26T04:40:45.996Z,72.40
2023-04-26T04:43:16.146Z,71.66
2023-04-26T04:45:44.773Z,73.48
2023-04-26T04:48:12.434Z,71.81
2023-04-26T04:50:39.899Z,70.39
2023-04-26T04:53:14.095Z,69.67
2023-04-26T04:55:45.684Z,69.42
2023-04-26T04:58:24.389Z,69.58
2023-04-26T05:00:54.924Z,70.03
2023-04-26T05:03:23.240Z,71.61
2023-04-26T05:05:54.662Z,71.64
2023-04-26T05:08:23.860Z,71.66
2023-04-26T05:10:54.443Z,73.16
2023-04-26T05:13:25.102Z,74.71
2023-04-26T05:15:54.483Z,73.58
2023-04-26T05:18:26.363Z,75.30
2023-04-26T05:20:59.414Z,74.72
2023-04-26T05:23:32.366Z,72.28
2023-04-26T05:26:05.474Z,71.08
2023-04-26T05:28:34.051Z,70.22
2023-04-26T05:31:02.689Z,69.65
2023-04-26T05:33:31.960Z,68.22
2023-04-26T05:35:59.743Z,67.43
2023-04-26T05:38:27.208Z,68.41
2023-04-26T05:40:54.301Z,68.21
2023-04-26T05:43:22.160Z,68.89
2023-04-26T05:45:56.826Z,68.37
2023-04-26T05:48:24.747Z,69.57
2023-04-26T05:50:53.284Z,67.81
2023-04-26T05:53:20.380Z,67.35
2023-04-26T05:55:48.895Z,64.93
2023-04-26T05:58:15.808Z,65.12
2023-04-26T06:00:46.825Z,65.12
2023-04-26T06:03:13.578Z,64.38
2023-04-26T06:05:41.678Z,64.41
2023-04-26T06:08:10.756Z,65.01
2023-04-26T06:10:45.553Z,65.87
2023-04-26T06:13:12.480Z,64.43
2023-04-26T06:15:39.854Z,67.47
2023-04-26T06:18:07.497Z,69.18
2023-04-26T06:20:34.879Z,68.83
2023-04-26T06:23:03.191Z,66.60
2023-04-26T06:25:30.330Z,65.99
2023-04-26T06:27:59.416Z,68.62
2023-04-26T06:30:27.450Z,70.03
2023-04-26T06:32:54.472Z,67.70
2023-04-26T06:35:26.132Z,69.11
2023-04-26T06:37:53.400Z,70.24
2023-04-26T06:40:21.138Z,69.91
2023-04-26T06:42:49.292Z,70.00
2023-04-26T06:45:17.231Z,68.44
2023-04-26T06:47:44.038Z,68.43
2023-04-26T06:50:11.244Z,66.42
2023-04-26T06:52:44.646Z,63.81
2023-04-26T06:55:14.422Z,64.37
2023-04-26T06:57:42.615Z,63.95
2023-04-26T07:00:15.111Z,64.76
2023-04-26T07:02:44.525Z,66.35
2023-04-26T07:05:24.411Z,66.86
2023-04-26T07:07:57.019Z,65.07
2023-04-26T07:10:24.333Z,61.13
2023-04-26T07:12:54.128Z,60.60
2023-04-26T07:15:29.818Z,58.28
2023-04-26T07:17:57.945Z,60.07
2023-04-26T07:20:27.575Z,59.54
2023-04-26T07:22:54.796Z,58.57
2023-04-26T07:25:22.251Z,57.04
2023-04-26T07:27:52.505Z,54.91
2023-04-26T07:30:34.991Z,54.35
2023-04-26T07:33:02.818Z,55.12
2023-04-26T07:35:40.839Z,55.01
2023-04-26T07:38:15.079Z,56.96
2023-04-26T07:40:46.205Z,56.31
2023-04-26T07:43:15.734Z,53.81
2023-04-26T07:45:45.115Z,54.15
2023-04-26T07:48:18.696Z,55.06
2023-04-26T07:50:49.198Z,53.46
2023-04-26T07:53:21.524Z,52.24
2023-04-26T07:55:52.079Z,52.39
2023-04-26T07:58:19.599Z,50.37
2023-04-26T08:00:56.177Z,50.16
2023-04-26T08:03:24.095Z,48.43
2023-04-26T08:05:58.057Z,49.33
2023-04-26T08:08:27.334Z,48.75
2023-04-26T08:10:54.196Z,49.73
2023-04-26T08:13:44.712Z,50.12
2023-04-26T08:16:12.226Z,50.32
2023-04-26T08:18:41.114Z,49.00
2023-04-26T08:21:10.274Z,48.15
2023-04-26T08:23:38.534Z,45.40
2023-04-26T08:26:07.923Z,44.76
2023-04-26T08:28:35.764Z,43.84
2023-04-26T08:31:03.219Z,43.17
2023-04-26T08:33:29.906Z,47.02
2023-04-26T08:36:03.959Z,49.26
2023-04-26T08:38:32.262Z,49.44
2023-04-26T08:41:02.256Z,48.89
2023-04-26T08:43:33.939Z,50.69
2023-04-26T08:46:03.009Z,50.26
2023-04-26T08:48:35.095Z,50.90
2023-04-26T08:51:03.661Z,50.61
2023-04-26T08:53:31.034Z,52.33
2023-04-26T08:56:03.357Z,50.23
2023-04-26T08:58:35.280Z,46.42
2023-04-26T09:01:03.990Z,47.48
2023-04-26T09:03:31.351Z,46.52
2023-04-26T09:06:01.124Z,46.55
2023-04-26T09:08:30.665Z,45.87
2023-04-26T09:10:58.661Z,44.55
2023-04-26T09:15:56.425Z,51.23
2023-04-26T09:18:25.502Z,54.00
2023-04-26T09:21:14.434Z,54.58
2023-04-26T09:24:04.509Z,55.33
2023-04-26T09:26:32.977Z,55.00
2023-04-26T09:29:20.343Z,54.76
2023-04-26T09:31:50.114Z,53.61
2023-04-26T09:34:20.266Z,52.47
2023-04-26T09:36:51.677Z,50.52
2023-04-26T09:39:38.400Z,49.07
2023-04-26T09:42:05.195Z,48.56
2023-04-26T09:44:32.375Z,48.48
2023-04-26T09:47:02.288Z,49.43
2023-04-26T09:49:40.637Z,46.60
2023-04-26T09:52:10.311Z,46.89
2023-04-26T09:54:41.604Z,46.94
2023-04-26T09:57:08.265Z,44.72
2023-04-26T09:59:45.629Z,42.93
2023-04-26T10:02:14.659Z,43.05
2023-04-26T10:04:42.047Z,42.40
2023-04-26T10:07:09.607Z,41.52
2023-04-26T10:09:36.513Z,42.01
2023-04-26T10:12:03.448Z,42.59
2023-04-26T10:14:31.191Z,40.27
2023-04-26T10:16:58.729Z,41.78
2023-04-26T10:19:26.555Z,42.42
2023-04-26T10:21:54.943Z,42.65
2023-04-26T10:24:28.680Z,43.94
2023-04-26T10:26:57.706Z,43.77
2023-04-26T10:29:25.790Z,44.46
2023-04-26T10:32:09.581Z,45.16
2023-04-26T10:34:37.457Z,44.42
2023-04-26T10:37:14.431Z,47.87
2023-04-26T10:39:43.194Z,51.61
2023-04-26T10:42:31.013Z,56.42
2023-04-26T10:45:02.978Z,60.91
2023-04-26T10:47:35.282Z,65.46
2023-04-26T10:50:11.528Z,68.39
2023-04-26T10:52:57.887Z,67.25
2023-04-26T10:55:44.634Z,67.49
2023-04-26T10:58:30.404Z,64.33
2023-04-26T11:01:13.589Z,62.91
2023-04-26T11:04:05.178Z,63.01
2023-04-26T11:06:54.364Z,61.29
2023-04-26T11:09:37.158Z,56.98
2023-04-26T11:12:08.091Z,59.00
2023-04-26T11:14:39.167Z,53.17
2023-04-26T11:17:11.777Z,50.67
2023-04-26T11:19:38.847Z,51.53
2023-04-26T11:22:07.958Z,48.38
2023-04-26T11:24:40.035Z,47.75
2023-04-26T11:27:10.324Z,45.88
2023-04-26T11:29:43.608Z,44.81
2023-04-26T11:32:13.135Z,44.89
2023-04-26T11:34:40.403Z,44.38
2023-04-26T11:37:07.691Z,45.21
2023-04-26T11:39:34.728Z,44.94
2023-04-26T11:42:08.604Z,44.58
2023-04-26T11:44:39.057Z,45.74
2023-04-26T11:47:06.868Z,45.52
2023-04-26T11:49:34.810Z,45.09
2023-04-26T11:52:03.199Z,43.62
2023-04-26T11:54:35.262Z,44.03
2023-04-26T11:57:13.785Z,43.53
2023-04-26T11:59:42.274Z,43.87
2023-04-26T12:02:10.191Z,43.09
2023-04-26T12:04:42.393Z,39.07
2023-04-26T12:07:09.942Z,38.95
2023-04-26T12:09:43.509Z,39.10
2023-04-26T12:12:11.603Z,40.30
2023-04-26T12:14:39.678Z,39.71
2023-04-26T12:17:08.011Z,41.11
2023-04-26T12:19:39.275Z,40.03
2023-04-26T12:22:07.251Z,41.57
2023-04-26T12:24:35.893Z,42.55
2023-04-26T12:27:09.092Z,40.64
2023-04-26T12:29:36.336Z,41.31
2023-04-26T12:32:04.644Z,39.71
2023-04-26T12:34:31.826Z,40.61
2023-04-26T12:36:58.673Z,42.82
2023-04-26T12:39:25.411Z,46.08
2023-04-26T12:41:55.374Z,47.35
2023-04-26T12:44:22.779Z,49.10
2023-04-26T12:46:50.418Z,50.14
2023-04-26T12:49:16.845Z,50.43
2023-04-26T12:51:43.466Z,49.74
2023-04-26T12:54:10.608Z,49.68
2023-04-26T12:56:45.198Z,50.16
2023-04-26T12:59:14.383Z,49.64
2023-04-26T13:01:42.185Z,51.25
2023-04-26T13:04:12.783Z,52.74
2023-04-26T13:06:39.887Z,53.71
2023-04-26T13:09:08.230Z,52.85
2023-04-26T13:11:34.979Z,52.09
2023-04-26T13:14:05.432Z,52.99
2023-04-26T13:16:37.235Z,52.08
2023-04-26T13:19:09.752Z,52.65
2023-04-26T13:21:49.960Z,49.53
2023-04-26T13:24:19.236Z,46.93
2023-04-26T13:26:45.598Z,46.23
2023-04-26T13:29:12.327Z,44.65
2023-04-26T13:31:40.028Z,44.83
2023-04-26T13:34:08.347Z,45.36
2023-04-26T13:36:35.358Z,45.92
2023-04-26T13:39:05.258Z,49.05
2023-04-26T13:41:35.658Z,51.32
2023-04-26T13:44:03.679Z,52.39
2023-04-26T13:46:31.764Z,53.06
2023-04-26T13:49:02.747Z,53.51
2023-04-26T13:51:34.175Z,52.08
2023-04-26T13:54:02.331Z,50.38
2023-04-26T13:56:29.769Z,49.42
2023-04-26T13:59:11.942Z,48.57
2023-04-26T14:02:08.199Z,46.97
2023-04-26T14:04:36.530Z,45.76
2023-04-26T14:07:03.576Z,46.15
2023-04-26T14:09:30.512Z,46.46
2023-04-26T14:12:07.847Z,45.73
2023-04-26T14:14:38.354Z,46.39
2023-04-26T14:17:05.288Z,48.24
2023-04-26T14:19:31.881Z,48.17
2023-04-26T14:21:58.506Z,48.21
2023-04-26T14:24:26.036Z,47.08
2023-04-26T14:26:53.096Z,46.94
2023-04-26T14:29:20.840Z,46.45
2023-04-26T14:31:49.200Z,46.55
2023-04-26T14:34:24.786Z,46.51
2023-04-26T14:36:52.605Z,45.87
2023-04-26T14:39:19.150Z,45.64
2023-04-26T14:41:46.502Z,45.70
2023-04-26T14:44:15.539Z,46.66
2023-04-26T14:46:42.558Z,48.40
2023-04-26T14:49:13.215Z,48.26
2023-04-26T14:51:40.033Z,48.47
2023-04-26T14:54:10.095Z,48.22
2023-04-26T14:56:38.382Z,45.97
2023-04-26T14:59:06.363Z,46.32
2023-04-26T15:01:33.227Z,45.78
2023-04-26T15:04:03.183Z,45.85
2023-04-26T15:06:34.145Z,45.39
2023-04-26T15:09:04.487Z,44.86
2023-04-26T15:11:38.929Z,43.74
2023-04-26T15:14:05.519Z,44.41
2023-04-26T15:16:32.380Z,43.34
2023-04-26T15:19:00.205Z,43.83
2023-04-26T15:21:30.963Z,43.50
2023-04-26T15:24:00.276Z,44.66
2023-04-26T15:26:29.677Z,44.74
2023-04-26T15:28:56.316Z,43.59
2023-04-26T15:31:25.912Z,43.26
2023-04-26T15:34:05.087Z,43.53
2023-04-26T15:36:34.559Z,43.40
2023-04-26T15:39:06.152Z,43.11
2023-04-26T15:41:32.565Z,42.64
2023-04-26T15:44:00.179Z,41.98
2023-04-26T15:46:28.598Z,41.20
2023-04-26T15:48:59.392Z,41.72
2023-04-26T15:51:26.764Z,41.89
2023-04-26T15:53:55.551Z,42.74
2023-04-26T15:56:26.296Z,42.55
2023-04-26T15:58:59.278Z,43.17
2023-04-26T16:01:25.947Z,43.69
2023-04-26T16:03:53.414Z,44.18
2023-04-26T16:06:21.119Z,44.11
2023-04-26T16:08:48.235Z,43.59
2023-04-26T16:11:16.118Z,44.44
2023-04-26T16:13:44.540Z,43.93
2023-04-26T16:16:19.806Z,44.40
2023-04-26T16:18:47.576Z,43.90
2023-04-26T16:21:14.391Z,44.40
2023-04-26T16:23:42.143Z,45.44
2023-04-26T16:26:09.477Z,45.23
2023-04-26T16:28:36.649Z,44.16
2023-04-26T16:31:07.548Z,45.26
2023-04-26T16:33:41.136Z,45.30
2023-04-26T16:36:09.301Z,45.68
2023-04-26T16:38:37.466Z,44.91
2023-04-26T16:41:11.592Z,43.63
2023-04-26T16:43:46.364Z,44.32
2023-04-26T16:46:21.910Z,43.26
2023-04-26T16:48:51.098Z,43.29
2023-04-26T16:51:20.666Z,43.34
2023-04-26T16:53:47.797Z,44.54
2023-04-26T16:56:17.071Z,43.79
2023-04-26T16:58:49.902Z,44.04
2023-04-26T17:01:22.747Z,44.26
2023-04-26T17:03:58.239Z,44.41
2023-04-26T17:06:43.828Z,43.94
2023-04-26T17:09:16.976Z,44.84
2023-04-26T17:11:45.586Z,44.40
2023-04-26T17:14:19.699Z,44.51
2023-04-26T17:16:56.655Z,44.77
2023-04-26T17:19:32.413Z,44.81
2023-04-26T17:22:00.784Z,44.45
2023-04-26T17:24:54.166Z,45.11
2023-04-26T17:27:22.418Z,45.20
2023-04-26T17:29:50.543Z,44.94
2023-04-26T17:32:18.780Z,45.73
2023-04-26T17:34:47.457Z,45.50
2023-04-26T17:37:15.879Z,45.22
2023-04-26T17:39:43.307Z,45.27
2023-04-26T17:42:14.376Z,44.83
2023-04-26T17:44:44.230Z,44.79
2023-04-26T17:47:11.997Z,44.94
2023-04-26T17:49:39.540Z,45.86
2023-04-26T17:52:07.157Z,46.27
2023-04-26T17:54:34.749Z,46.80
2023-04-26T17:57:05.166Z,46.28
2023-04-26T17:59:32.615Z,46.64
2023-04-26T18:02:00.172Z,47.34
2023-04-26T18:04:34.187Z,47.78
2023-04-26T18:07:04.709Z,47.03
2023-04-26T18:09:33.583Z,47.05
2023-04-26T18:12:04.012Z,47.66
2023-04-26T18:14:33.102Z,47.78
2023-04-26T18:17:01.919Z,47.80
2023-04-26T18:19:29.394Z,46.55
2023-04-26T18:21:57.383Z,46.74
2023-04-26T18:24:26.021Z,46.75
2023-04-26T18:27:00.430Z,46.62
2023-04-26T18:29:28.523Z,47.21
2023-04-26T18:31:57.630Z,47.08
2023-04-26T18:34:24.668Z,47.02
2023-04-26T18:36:51.938Z,47.08
2023-04-26T18:39:19.450Z,47.02
2023-04-26T18:41:48.657Z,47.63
2023-04-26T18:44:15.599Z,47.74
2023-04-26T18:46:46.638Z,47.76
2023-04-26T18:49:16.779Z,47.55
2023-04-26T18:51:46.247Z,48.33
2023-04-26T18:54:14.807Z,49.42
2023-04-26T18:56:41.865Z,49.12
2023-04-26T18:59:14.986Z,49.16
2023-04-26T19:01:46.409Z,48.97
2023-04-26T19:04:13.222Z,49.40
2023-04-26T19:06:44.415Z,49.56
2023-04-26T19:09:12.055Z,50.20
2023-04-26T19:11:40.481Z,49.86
2023-04-26T19:14:08.038Z,49.95
2023-04-26T19:16:35.579Z,50.12
2023-04-26T19:19:03.333Z,50.52
2023-04-26T19:21:32.375Z,50.39
2023-04-26T19:23:59.435Z,50.62
2023-04-26T19:26:26.033Z,50.42
2023-04-26T19:28:52.821Z,50.52
2023-04-26T19:31:19.510Z,51.01
2023-04-26T19:33:46.936Z,51.36
2023-04-26T19:36:13.420Z,51.84
2023-04-26T19:38:40.021Z,52.27
2023-04-26T19:41:07.970Z,52.43
2023-04-26T19:43:34.870Z,52.77
2023-04-26T19:46:10.846Z,52.59
2023-04-26T19:48:37.477Z,52.33
2023-04-26T19:51:04.042Z,52.57
2023-04-26T19:53:30.934Z,52.68
2023-04-26T19:55:57.634Z,52.99
2023-04-26T19:58:25.421Z,52.75
2023-04-26T20:00:52.302Z,52.69
2023-04-26T20:03:19.005Z,52.96
2023-04-26T20:05:45.937Z,52.43
2023-04-26T20:08:12.384Z,52.70
2023-04-26T20:10:38.870Z,52.64
2023-04-26T20:13:05.604Z,53.23
2023-04-26T20:15:37.331Z,53.50
2023-04-26T20:18:04.063Z,53.52
2023-04-26T20:20:30.995Z,53.53
2023-04-26T20:22:57.602Z,53.14
2023-04-26T20:25:24.706Z,53.49
2023-04-26T20:27:51.580Z,53.75
2023-04-26T20:30:19.036Z,53.69
2023-04-26T20:32:46.608Z,53.75
2023-04-26T20:35:14.175Z,53.67
2023-04-26T20:37:44.096Z,54.13
2023-04-26T20:40:12.670Z,54.22
2023-04-26T20:42:39.857Z,55.02
2023-04-26T20:45:07.663Z,54.81
2023-04-26T20:47:34.472Z,54.74
2023-04-26T20:50:01.158Z,55.01
2023-04-26T20:52:29.571Z,54.75
2023-04-26T20:54:59.011Z,54.51
2023-04-26T20:57:26.135Z,54.99
2023-04-26T20:59:54.051Z,55.05
2023-04-26T21:02:20.765Z,54.92
2023-04-26T21:04:48.351Z,54.81
2023-04-26T21:07:16.180Z,54.78
2023-04-26T21:09:43.280Z,54.65
2023-04-26T21:12:12.822Z,54.58
2023-04-26T21:14:40.756Z,55.38
2023-04-26T21:17:09.274Z,55.01
2023-04-26T21:19:36.062Z,54.85
2023-04-26T21:22:03.249Z,54.92
2023-04-26T21:24:31.202Z,55.21
2023-04-26T21:26:59.857Z,55.58
2023-04-26T21:29:26.592Z,55.65
2023-04-26T21:31:54.228Z,55.20
2023-04-26T21:34:22.682Z,54.97
2023-04-26T21:36:50.570Z,56.03
2023-04-26T21:39:19.750Z,55.99
2023-04-26T21:41:46.323Z,55.53
2023-04-26T21:44:13.358Z,55.64
2023-04-26T21:46:41.237Z,55.26
2023-04-26T21:49:11.210Z,55.29
2023-04-26T21:51:38.936Z,56.25
2023-04-26T21:54:08.296Z,55.94
2023-04-26T21:56:35.259Z,55.79
2023-04-26T21:59:02.640Z,56.62
2023-04-26T22:01:33.048Z,57.52
2023-04-26T22:04:01.048Z,58.26
2023-04-26T22:06:30.132Z,56.53
2023-04-26T22:08:57.108Z,56.10
2023-04-26T22:11:24.432Z,57.57
2023-04-26T22:13:51.487Z,57.70
2023-04-26T22:16:19.920Z,56.28
2023-04-26T22:18:47.079Z,55.75
2023-04-26T22:21:14.301Z,55.73
2023-04-26T22:23:41.960Z,55.87
2023-04-26T22:26:09.087Z,55.90
2023-04-26T22:28:37.038Z,55.84
2023-04-26T22:31:03.777Z,55.73
2023-04-26T22:33:31.257Z,55.68
2023-04-26T22:36:00.388Z,56.31
2023-04-26T22:38:28.245Z,56.37
2023-04-26T22:40:55.625Z,56.74
2023-04-26T22:43:23.595Z,56.75
2023-04-26T22:45:51.457Z,56.40
2023-04-26T22:48:19.020Z,57.00
2023-04-26T22:50:50.459Z,56.76
2023-04-26T22:53:17.610Z,56.56
2023-04-26T22:55:44.762Z,57.04
2023-04-26T22:58:13.286Z,57.40
2023-04-26T23:00:41.068Z,57.62
2023-04-26T23:03:08.390Z,58.02
2023-04-26T23:05:35.475Z,57.90
2023-04-26T23:08:02.669Z,58.03
2023-04-26T23:10:30.198Z,57.82
2023-04-26T23:12:57.741Z,57.59
2023-04-26T23:15:25.866Z,57.53
2023-04-26T23:17:55.199Z,58.31
2023-04-26T23:20:24.110Z,58.16
2023-04-26T23:22:51.697Z,58.01
2023-04-26T23:25:20.209Z,58.30
2023-04-26T23:27:48.826Z,58.45
2023-04-26T23:30:18.975Z,58.40
2023-04-26T23:32:48.257Z,58.73
2023-04-26T23:35:17.244Z,59.06
2023-04-26T23:37:51.787Z,59.31
2023-04-26T23:40:20.269Z,58.74
2023-04-26T23:42:46.770Z,59.02
2023-04-26T23:45:13.802Z,58.84
2023-04-26T23:47:41.802Z,58.73
2023-04-26T23:50:10.753Z,58.72
2023-04-26T23:52:37.617Z,58.95
2023-04-26T23:55:04.950Z,59.15
2023-04-26T23:57:32.752Z,59.12
